الصفحة الرئيسية
METAR-TAF:

METAR-TAF

مطار :

Chandler Municipal Airport

Chandler, أريزونا, الولايات المتحدة

دائرة عرض: 33-16-09N, خط طول: 111-48-40W, ارتفاع: 379 متر

مراقبة الطقس الحالي

تاريخ ووقت الإصدار 8 دقيقة قبل الساعة 02:47UTC
ريح 5 عقدة من الشمال
درجة الحرارة 35°درجة مئوية
الرطوبة 16%
ضغط 1012 hPa
الرؤية: 16.1 كم
غيوم مفككة على ارتفاع 15000 قدم

METAR: KCHD 230247Z 35005KT 10SM BKN150 35/05 A2987

زمن: 19:55 (02:55 UTC)


TAF: مفقودة

أرصاد الطقس والتوقعات من أكثر من 4000 مطار (تقارير الطقس للمطار METAR والتنبؤ بالطقس بالمطارTAF).

المحطات المتاحة هي النقط الصفراء والحمراء على الخريطة.

حرك المؤشر فوق النقطة لمعرفة اسم المحطة.

ثم انقر لمعرفة أرصاد وتوقعات الطقس.

لتغيير الخارطة: اضغط على الأزرار الخضراء مع رمز الصليب الأسود للتكبير. على الزر الأخضر مع شرطة للتصغير، أو على الأسهم الخضراء للخرائط المجاورة.


METAR-TAF: